Time;durP1;ratioP1;P1;durP2;ratioP2;P2;SDS_P1;SDS_P2;PMS_P1;PMS_P2;Temp;Humidity;BMP_temperature;BMP_pressure;BME280_temperature;BME280_humidity;BME280_pressure;Samples;Min_cycle;Max_cycle;Signal;HPM_P1;HPM_P2
2022/03/17 00:00:57;;;;;;;22.23;14.95;;;9.20;56.50;;;;;;5093551;28;20024;-84
2022/03/17 00:03:23;;;;;;;22.52;15.18;;;8.80;58.70;;;;;;5107197;28;20095;-84
2022/03/17 00:05:49;;;;;;;25.70;16.48;;;8.60;59.60;;;;;;5090965;28;20035;-83
2022/03/17 00:08:16;;;;;;;27.42;19.13;;;8.60;60.60;;;;;;5107003;28;20020;-85
2022/03/17 00:10:42;;;;;;;30.52;19.67;;;8.90;60.00;;;;;;5073158;28;20033;-82
2022/03/17 00:13:08;;;;;;;27.42;17.95;;;9.10;59.70;;;;;;5074421;28;20033;-83
2022/03/17 00:15:33;;;;;;;26.40;17.95;;;9.10;59.30;;;;;;5093006;28;20028;-84
2022/03/17 00:17:59;;;;;;;28.02;18.02;;;8.80;59.90;;;;;;5093572;28;20020;-84
2022/03/17 00:20:25;;;;;;;28.25;18.20;;;9.00;59.50;;;;;;5093155;28;20033;-80
2022/03/17 00:22:51;;;;;;;28.00;18.90;;;8.90;59.40;;;;;;5079474;28;20020;-83
2022/03/17 00:25:17;;;;;;;27.00;17.60;;;8.70;59.60;;;;;;5090988;28;20024;-83
2022/03/17 00:27:43;;;;;;;26.63;18.30;;;9.00;59.70;;;;;;5090980;28;20035;-84
2022/03/17 00:30:10;;;;;;;31.33;19.77;;;9.00;60.20;;;;;;5076840;28;20457;-84
2022/03/17 00:32:38;;;;;;;24.77;16.83;;;9.40;58.90;;;;;;5110625;28;20119;-81
2022/03/17 00:37:50;;;;;;;24.02;16.17;;;9.20;56.30;;;;;;5097040;28;20379;-84
2022/03/17 00:40:16;;;;;;;26.25;16.52;;;9.30;55.70;;;;;;5072325;28;20398;-84
2022/03/17 00:42:41;;;;;;;27.17;17.02;;;9.20;56.90;;;;;;5090623;28;20463;-84
2022/03/17 00:45:10;;;;;;;25.55;17.52;;;9.10;57.60;;;;;;5090495;28;20029;-83
2022/03/17 00:47:37;;;;;;;28.35;18.92;;;9.30;57.30;;;;;;5083202;28;20027;-84
2022/03/17 00:50:04;;;;;;;27.08;18.40;;;9.30;57.20;;;;;;5092407;28;20070;-84
2022/03/17 00:52:29;;;;;;;30.45;19.98;;;9.40;56.80;;;;;;5110618;28;20140;-83
2022/03/17 00:54:55;;;;;;;25.92;17.98;;;9.70;56.60;;;;;;5110894;28;20100;-83
2022/03/17 00:57:21;;;;;;;30.60;19.95;;;9.80;56.00;;;;;;5080024;28;20498;-84
2022/03/17 00:59:48;;;;;;;25.30;17.05;;;9.40;56.20;;;;;;5071906;28;20475;-85
2022/03/17 01:02:15;;;;;;;30.98;20.05;;;9.40;57.30;;;;;;5060891;28;20028;-84
2022/03/17 01:04:40;;;;;;;27.30;18.27;;;9.30;58.20;;;;;;5076608;28;20027;-84
2022/03/17 01:07:06;;;;;;;26.52;17.58;;;9.40;56.80;;;;;;5068399;28;20020;-84
2022/03/17 01:09:32;;;;;;;26.38;17.42;;;9.40;56.10;;;;;;5096836;28;20040;-84
2022/03/17 01:11:58;;;;;;;24.85;17.70;;;9.30;57.20;;;;;;5096627;28;20028;-85
2022/03/17 01:14:24;;;;;;;27.02;17.80;;;9.30;56.70;;;;;;5078670;28;20038;-84
2022/03/17 01:16:50;;;;;;;30.92;20.05;;;9.30;56.00;;;;;;5068351;28;20032;-85
2022/03/17 01:19:20;;;;;;;28.92;19.13;;;9.30;55.80;;;;;;5058380;28;20029;-84
2022/03/17 01:21:50;;;;;;;27.02;18.13;;;8.90;57.00;;;;;;5076463;28;20024;-83
2022/03/17 01:24:16;;;;;;;30.77;19.20;;;8.50;58.50;;;;;;5058542;28;20082;-81
2022/03/17 01:26:42;;;;;;;30.75;19.90;;;8.40;59.70;;;;;;5066359;28;20032;-84
2022/03/17 01:29:08;;;;;;;32.95;18.25;;;8.30;59.70;;;;;;5078073;28;20032;-83
2022/03/17 01:31:35;;;;;;;29.75;19.30;;;8.00;59.60;;;;;;5078252;28;20029;-83
2022/03/17 01:34:01;;;;;;;32.42;19.88;;;7.50;61.10;;;;;;5096153;28;20028;-85
2022/03/17 01:38:04;;;;;;;31.88;19.85;;;7.40;62.20;;;;;;5086243;27;1413262;-84
2022/03/17 01:40:30;;;;;;;29.25;18.98;;;7.50;62.70;;;;;;5112015;28;20463;-81
2022/03/17 01:42:56;;;;;;;32.25;20.50;;;7.70;61.40;;;;;;5110762;28;20045;-80
2022/03/17 01:45:22;;;;;;;28.55;19.60;;;8.00;62.10;;;;;;5111632;28;20110;-80
2022/03/17 01:47:47;;;;;;;32.17;19.92;;;8.40;60.80;;;;;;5093345;28;20062;-80
2022/03/17 01:50:19;;;;;;;31.10;19.98;;;8.20;61.80;;;;;;5111414;28;20055;-82
2022/03/17 01:52:46;;;;;;;32.15;19.52;;;8.30;61.00;;;;;;5076461;28;20024;-85
2022/03/17 01:55:13;;;;;;;32.95;21.27;;;8.40;61.10;;;;;;5091082;28;20075;-82
2022/03/17 01:57:40;;;;;;;29.30;19.15;;;8.50;61.10;;;;;;5090761;28;20066;-81
2022/03/17 02:00:09;;;;;;;30.73;19.85;;;8.70;60.60;;;;;;5080433;28;20028;-84
2022/03/17 02:02:34;;;;;;;30.20;19.25;;;8.80;60.30;;;;;;5093065;28;20051;-82
2022/03/17 02:05:03;;;;;;;31.35;20.48;;;9.20;59.50;;;;;;5092819;28;20413;-82
2022/03/17 02:07:29;;;;;;;31.70;20.27;;;9.00;59.70;;;;;;5111176;28;20027;-83
2022/03/17 02:09:55;;;;;;;29.42;19.52;;;8.90;60.50;;;;;;5104311;28;20040;-84
2022/03/17 02:15:08;;;;;;;33.75;20.63;;;9.20;59.70;;;;;;5091071;28;20051;-83
2022/03/17 02:17:39;;;;;;;32.45;20.75;;;9.20;60.00;;;;;;5073705;28;20451;-81
2022/03/17 02:20:09;;;;;;;32.55;19.88;;;9.40;59.50;;;;;;5090699;28;20111;-83
2022/03/17 02:22:42;;;;;;;29.25;20.13;;;9.60;59.00;;;;;;5072800;28;20040;-78
2022/03/17 02:27:52;;;;;;;31.10;20.38;;;9.50;58.40;;;;;;5102763;28;20038;-83
2022/03/17 02:30:20;;;;;;;32.40;21.23;;;9.40;58.90;;;;;;5110759;28;20028;-81
2022/03/17 02:32:46;;;;;;;31.92;20.77;;;9.50;58.70;;;;;;5110709;28;20027;-82
2022/03/17 02:35:22;;;;;;;32.80;20.92;;;9.60;58.30;;;;;;5092509;28;20023;-81
2022/03/17 02:37:49;;;;;;;35.67;23.08;;;9.20;58.30;;;;;;5098174;28;20044;-81
2022/03/17 02:40:15;;;;;;;33.67;21.67;;;8.80;59.80;;;;;;5072125;28;20060;-84
2022/03/17 02:42:41;;;;;;;32.60;21.25;;;8.80;60.40;;;;;;5090187;28;20047;-83
2022/03/17 02:45:10;;;;;;;32.72;21.92;;;8.80;59.90;;;;;;5089951;28;20020;-84
2022/03/17 02:47:37;;;;;;;32.60;20.67;;;9.00;59.20;;;;;;5095278;28;20107;-83
2022/03/17 02:50:10;;;;;;;35.67;23.33;;;9.00;59.60;;;;;;5096705;28;20463;-85
2022/03/17 02:52:36;;;;;;;35.92;22.60;;;8.60;60.90;;;;;;5078682;28;20024;-79
2022/03/17 02:55:03;;;;;;;38.72;23.45;;;8.70;60.50;;;;;;5096976;28;20085;-83
2022/03/17 02:57:29;;;;;;;35.40;23.15;;;8.70;60.20;;;;;;5085420;28;20039;-84
2022/03/17 02:59:54;;;;;;;33.42;22.48;;;8.50;61.00;;;;;;5058514;28;20394;-79
2022/03/17 03:02:21;;;;;;;37.75;23.35;;;8.70;60.70;;;;;;5058214;28;20560;-85
2022/03/17 03:04:47;;;;;;;35.38;23.50;;;8.80;60.40;;;;;;5076287;28;20025;-85
2022/03/17 03:07:13;;;;;;;34.92;23.60;;;8.90;60.50;;;;;;5083553;28;20024;-83
2022/03/17 03:09:39;;;;;;;34.95;22.80;;;9.00;59.80;;;;;;5078333;28;20438;-82
2022/03/17 03:12:06;;;;;;;41.97;24.45;;;8.90;59.80;;;;;;5095991;28;20032;-80
2022/03/17 03:14:31;;;;;;;39.40;25.15;;;8.90;60.10;;;;;;5078264;28;20016;-81
2022/03/17 03:16:57;;;;;;;39.05;24.30;;;8.90;60.00;;;;;;5078244;28;20054;-81
2022/03/17 03:19:23;;;;;;;36.90;22.58;;;9.10;59.20;;;;;;5094356;28;20016;-84
2022/03/17 03:21:49;;;;;;;37.47;24.52;;;9.00;59.60;;;;;;5095843;28;20032;-84
2022/03/17 03:24:15;;;;;;;40.53;24.20;;;8.80;60.80;;;;;;5096150;28;20415;-83
2022/03/17 03:26:43;;;;;;;39.95;25.27;;;8.90;60.30;;;;;;5072015;28;20074;-84
2022/03/17 03:31:38;;;;;;;37.63;24.48;;;8.90;60.00;;;;;;5075398;28;20020;-83
2022/03/17 03:34:03;;;;;;;38.15;24.60;;;8.80;60.30;;;;;;5058096;28;20360;-84
2022/03/17 03:39:13;;;;;;;41.03;25.73;;;8.90;59.70;;;;;;5096185;28;20509;-85
2022/03/17 03:41:39;;;;;;;37.05;23.58;;;9.00;59.10;;;;;;5095726;28;20024;-85
2022/03/17 03:44:05;;;;;;;39.20;25.17;;;9.10;59.30;;;;;;5095740;28;20432;-84
2022/03/17 03:46:30;;;;;;;43.30;26.02;;;9.00;59.00;;;;;;5077641;28;20393;-85
2022/03/17 03:48:56;;;;;;;43.35;26.33;;;9.00;59.40;;;;;;5068255;28;20050;-83
2022/03/17 03:51:21;;;;;;;40.05;25.23;;;9.10;59.20;;;;;;5075524;28;20052;-85
2022/03/17 03:56:31;;;;;;;41.42;27.13;;;9.30;57.90;;;;;;5075140;28;20131;-85
2022/03/17 03:59:02;;;;;;;46.72;27.73;;;9.20;58.70;;;;;;5074677;28;20449;-82
2022/03/17 04:01:27;;;;;;;;;;;9.30;58.00;;;;;;5086564;28;20021;-80
2022/03/17 04:03:54;;;;;;;51.15;28.50;;;9.00;58.30;;;;;;5094714;28;20350;-81
2022/03/17 04:06:20;;;;;;;48.47;27.98;;;8.80;59.20;;;;;;5077065;28;20024;-81
2022/03/17 04:08:45;;;;;;;49.10;28.85;;;8.90;59.50;;;;;;5076469;28;20077;-76
2022/03/17 04:11:11;;;;;;;49.03;28.75;;;9.00;58.90;;;;;;5094614;28;20512;-81
2022/03/17 04:13:36;;;;;;;47.45;29.15;;;8.90;59.20;;;;;;5078798;28;20032;-84
2022/03/17 04:16:02;;;;;;;53.22;30.10;;;9.10;58.60;;;;;;5074396;28;20043;-84
2022/03/17 04:18:28;;;;;;;42.53;26.30;;;9.30;58.30;;;;;;5067592;28;20047;-84
2022/03/17 04:20:53;;;;;;;46.38;28.27;;;9.20;57.70;;;;;;5094704;28;20035;-84
2022/03/17 04:23:19;;;;;;;45.58;28.35;;;8.90;58.30;;;;;;5063126;28;20025;-83
2022/03/17 04:25:45;;;;;;;50.35;29.23;;;8.90;58.50;;;;;;5074622;28;20443;-83
2022/03/17 04:28:11;;;;;;;54.13;30.38;;;9.10;58.90;;;;;;5056845;28;20435;-83
2022/03/17 04:30:36;;;;;;;42.83;26.25;;;9.40;57.50;;;;;;5056746;28;20029;-81
2022/03/17 04:33:02;;;;;;;37.42;24.23;;;9.40;56.60;;;;;;5068682;28;20093;-78
2022/03/17 04:35:28;;;;;;;39.10;24.48;;;9.50;55.40;;;;;;5076513;28;20364;-78
2022/03/17 04:37:54;;;;;;;37.38;23.70;;;8.80;55.10;;;;;;5076454;28;20082;-79
2022/03/17 04:40:19;;;;;;;46.65;27.95;;;8.40;56.20;;;;;;5076702;28;20059;-79
2022/03/17 04:42:45;;;;;;;39.72;25.77;;;8.10;57.80;;;;;;5066336;28;20107;-81
2022/03/17 04:45:11;;;;;;;42.95;26.83;;;8.20;58.20;;;;;;5074412;28;20078;-86
2022/03/17 04:47:36;;;;;;;43.13;26.80;;;8.30;58.40;;;;;;5056542;28;20043;-84
2022/03/17 04:50:03;;;;;;;42.95;26.13;;;8.40;58.10;;;;;;5074527;28;20017;-84
2022/03/17 04:55:12;;;;;;;43.75;26.08;;;8.30;58.50;;;;;;5074393;28;20078;-82
2022/03/17 04:57:38;;;;;;;53.50;30.83;;;8.30;58.70;;;;;;5056362;28;20032;-81
2022/03/17 05:00:04;;;;;;;39.58;24.70;;;8.40;59.00;;;;;;5074069;28;20020;-81
2022/03/17 05:02:30;;;;;;;52.03;29.88;;;8.60;57.40;;;;;;5057242;28;20403;-84
2022/03/17 05:04:56;;;;;;;59.85;32.42;;;8.60;58.20;;;;;;5056179;28;20439;-82
2022/03/17 05:07:22;;;;;;;50.25;28.02;;;8.60;58.40;;;;;;5056052;28;20028;-84
2022/03/17 05:09:47;;;;;;;47.53;27.17;;;8.50;59.10;;;;;;5055843;28;20032;-84
2022/03/17 05:13:46;;;;;;;52.72;31.17;;;8.10;59.50;;;;;;5103595;28;20477;-85
2022/03/17 05:16:13;;;;;;;;;;;7.80;60.80;;;;;;5112738;28;20416;-79
2022/03/17 05:18:39;;;;;;;43.22;26.02;;;8.20;60.80;;;;;;5111850;28;19999;-85
2022/03/17 05:21:05;;;;;;;43.53;26.92;;;8.70;59.10;;;;;;5110886;28;20059;-84
2022/03/17 05:23:31;;;;;;;42.80;26.35;;;8.50;59.00;;;;;;5099541;28;20052;-82
2022/03/17 05:25:58;;;;;;;37.13;24.75;;;8.40;58.80;;;;;;5091415;28;20021;-84
2022/03/17 05:28:23;;;;;;;42.63;25.50;;;8.30;59.00;;;;;;5089901;28;20029;-83
2022/03/17 05:30:49;;;;;;;40.47;25.88;;;8.60;58.60;;;;;;5090213;28;20031;-81
2022/03/17 05:33:15;;;;;;;43.03;27.85;;;8.40;58.70;;;;;;5106947;28;20517;-85
2022/03/17 05:35:42;;;;;;;48.80;30.02;;;8.00;60.90;;;;;;5111683;28;20374;-84
2022/03/17 05:38:08;;;;;;;51.67;29.80;;;8.30;60.20;;;;;;5111527;28;20052;-84
2022/03/17 05:40:34;;;;;;;47.60;29.55;;;8.70;59.90;;;;;;5111370;28;20121;-84
2022/03/17 05:43:02;;;;;;;52.05;30.67;;;9.20;59.00;;;;;;5094913;28;20044;-84
2022/03/17 05:45:29;;;;;;;40.03;26.90;;;9.50;58.30;;;;;;5105168;28;20116;-84
2022/03/17 05:47:57;;;;;;;45.17;28.38;;;9.80;57.30;;;;;;5111638;28;20482;-82
2022/03/17 05:50:27;;;;;;;47.67;27.13;;;9.40;58.80;;;;;;5098536;28;20031;-83
2022/03/17 05:52:53;;;;;;;43.70;27.17;;;9.60;59.10;;;;;;5089811;28;20047;-84
2022/03/17 05:55:21;;;;;;;47.78;29.88;;;9.80;57.80;;;;;;5089625;28;20054;-85
2022/03/17 05:57:49;;;;;;;45.60;29.17;;;9.90;57.00;;;;;;5096364;28;20020;-86
2022/03/17 06:00:18;;;;;;;40.45;25.23;;;10.10;56.70;;;;;;5095513;28;20506;-85
2022/03/17 06:02:44;;;;;;;41.17;26.88;;;10.20;56.80;;;;;;5091447;28;20097;-84
2022/03/17 06:05:11;;;;;;;45.33;28.17;;;10.10;56.30;;;;;;5109140;28;20035;-84
2022/03/17 06:07:37;;;;;;;43.38;27.83;;;10.20;57.30;;;;;;5102719;28;20030;-78
2022/03/17 06:10:05;;;;;;;42.27;26.60;;;10.50;56.30;;;;;;4379371;28;10000726;-84
2022/03/17 06:12:31;;;;;;;38.03;24.42;;;10.90;55.90;;;;;;5066997;28;20298;-85
2022/03/17 06:14:57;;;;;;;38.67;25.00;;;11.10;55.60;;;;;;5085279;28;20028;-85
2022/03/17 06:17:23;;;;;;;39.50;25.98;;;11.10;54.20;;;;;;5087510;28;20039;-85
2022/03/17 06:19:50;;;;;;;36.53;24.33;;;10.70;56.10;;;;;;5075143;28;20033;-85
2022/03/17 06:22:16;;;;;;;39.58;25.95;;;10.30;57.70;;;;;;5071799;28;20024;-86
2022/03/17 06:24:42;;;;;;;39.35;26.08;;;10.00;58.30;;;;;;5062533;28;20388;-86
2022/03/17 06:27:08;;;;;;;41.88;27.42;;;9.60;59.30;;;;;;5073455;28;20399;-80
2022/03/17 06:29:33;;;;;;;37.60;25.33;;;9.70;60.10;;;;;;5068257;28;20037;-84
2022/03/17 06:31:59;;;;;;;43.70;27.50;;;10.10;58.40;;;;;;5054352;28;20036;-84
2022/03/17 06:34:25;;;;;;;39.92;26.33;;;10.30;59.60;;;;;;5056627;28;20029;-84
2022/03/17 06:36:50;;;;;;;41.22;27.42;;;10.70;58.50;;;;;;5084331;28;20032;-77
2022/03/17 06:39:16;;;;;;;43.28;27.95;;;11.30;57.30;;;;;;5075388;28;20025;-85
2022/03/17 06:41:42;;;;;;;36.13;24.80;;;11.80;56.30;;;;;;5075793;28;20095;-85
2022/03/17 06:44:08;;;;;;;38.40;25.33;;;11.50;54.70;;;;;;5074001;28;20032;-85
2022/03/17 06:46:34;;;;;;;38.90;25.90;;;11.80;55.10;;;;;;5073646;28;20020;-81
2022/03/17 06:48:59;;;;;;;37.60;25.67;;;12.10;54.40;;;;;;5068157;28;20054;-83
2022/03/17 06:51:25;;;;;;;38.92;25.60;;;12.40;53.80;;;;;;5068521;28;20058;-83
2022/03/17 06:53:51;;;;;;;40.08;26.13;;;12.60;54.20;;;;;;5059714;28;20047;-79
2022/03/17 06:56:17;;;;;;;35.58;23.20;;;12.50;52.20;;;;;;5079423;28;20062;-85
2022/03/17 06:58:45;;;;;;;40.83;26.55;;;12.30;50.50;;;;;;5078387;28;20064;-83
2022/03/17 07:01:11;;;;;;;36.03;24.60;;;12.10;55.30;;;;;;5091319;28;20036;-85
2022/03/17 07:03:37;;;;;;;36.92;25.30;;;12.30;54.60;;;;;;5068518;28;20035;-85
2022/03/17 07:06:02;;;;;;;54.45;35.72;;;12.50;54.80;;;;;;5061020;28;20029;-84
2022/03/17 07:08:28;;;;;;;36.13;23.73;;;12.40;55.30;;;;;;5075135;28;20104;-86
2022/03/17 07:10:54;;;;;;;36.35;23.08;;;12.20;52.30;;;;;;5068232;28;20476;-85
2022/03/17 07:13:19;;;;;;;34.88;23.23;;;12.30;53.30;;;;;;5088803;28;20051;-86
2022/03/17 07:15:45;;;;;;;36.53;23.52;;;12.20;53.00;;;;;;5095656;28;20060;-85
2022/03/17 07:18:11;;;;;;;32.78;22.73;;;12.50;51.30;;;;;;5063193;28;20546;-85
2022/03/17 07:20:36;;;;;;;31.27;22.05;;;12.90;51.70;;;;;;5072304;28;20098;-84
2022/03/17 07:23:02;;;;;;;32.15;22.10;;;13.40;50.10;;;;;;5070512;28;20025;-86
2022/03/17 07:25:28;;;;;;;38.08;21.58;;;13.50;49.90;;;;;;5074704;28;20050;-86
2022/03/17 07:27:54;;;;;;;33.13;21.90;;;13.60;48.30;;;;;;4717422;28;10000230;-87
2022/03/17 07:30:22;;;;;;;31.60;21.58;;;13.90;48.50;;;;;;5058274;28;20494;-86
2022/03/17 07:32:52;;;;;;;31.77;21.23;;;14.30;48.30;;;;;;5073899;28;20079;-86
2022/03/17 07:35:18;;;;;;;35.85;23.83;;;14.20;47.70;;;;;;5077570;28;20044;-85
2022/03/17 07:37:44;;;;;;;32.70;23.75;;;14.20;48.90;;;;;;5071539;28;20032;-81
2022/03/17 07:40:11;;;;;;;34.00;22.83;;;14.50;48.40;;;;;;5075076;28;20596;-87
2022/03/17 07:42:37;;;;;;;60.38;34.22;;;14.80;47.30;;;;;;5074161;28;20047;-83
2022/03/17 07:45:04;;;;;;;40.88;29.23;;;15.00;46.90;;;;;;5073023;28;20029;-85
2022/03/17 07:47:32;;;;;;;35.22;24.15;;;14.80;46.70;;;;;;5073573;28;20040;-87
2022/03/17 07:49:59;;;;;;;34.05;23.17;;;15.10;47.40;;;;;;5073994;28;20024;-83
2022/03/17 07:52:24;;;;;;;39.28;23.08;;;16.00;46.10;;;;;;5072846;28;20028;-81
2022/03/17 07:54:50;;;;;;;33.97;22.13;;;17.10;43.80;;;;;;5074181;28;20023;-80
2022/03/17 07:57:16;;;;;;;34.85;23.23;;;17.80;42.80;;;;;;5073134;28;20119;-81
2022/03/17 07:59:42;;;;;;;35.42;23.30;;;18.70;41.40;;;;;;5073840;28;20063;-78
2022/03/17 08:02:08;;;;;;;33.03;23.80;;;20.30;39.80;;;;;;5074419;28;20460;-84
2022/03/17 08:04:34;;;;;;;34.17;22.45;;;21.80;39.30;;;;;;5073313;28;20091;-80
2022/03/17 08:07:01;;;;;;;32.05;22.48;;;22.70;37.60;;;;;;5072939;28;20032;-83
2022/03/17 08:09:27;;;;;;;33.90;24.23;;;24.00;36.90;;;;;;5074267;28;20024;-83
2022/03/17 08:11:53;;;;;;;36.70;23.83;;;24.20;35.70;;;;;;5073697;28;20053;-84
2022/03/17 08:14:19;;;;;;;32.85;23.63;;;23.70;35.90;;;;;;5073134;28;20024;-84
2022/03/17 08:16:45;;;;;;;32.92;23.45;;;23.80;36.40;;;;;;5074095;28;20024;-82
2022/03/17 08:19:11;;;;;;;32.03;23.25;;;24.30;35.90;;;;;;5074205;28;20036;-82
2022/03/17 08:21:39;;;;;;;31.90;23.08;;;22.80;36.50;;;;;;5072851;28;20488;-82
2022/03/17 08:24:05;;;;;;;35.45;23.27;;;21.40;37.70;;;;;;5073750;28;20021;-82
2022/03/17 08:26:31;;;;;;;34.40;23.90;;;20.40;38.30;;;;;;5072767;28;20065;-82
2022/03/17 08:28:57;;;;;;;36.85;23.88;;;20.70;38.90;;;;;;5073816;28;20107;-83
2022/03/17 08:31:23;;;;;;;36.05;23.17;;;21.70;39.00;;;;;;5072935;28;20036;-80
2022/03/17 08:33:50;;;;;;;34.33;23.83;;;22.30;37.30;;;;;;5072934;28;20050;-79
2022/03/17 08:36:16;;;;;;;36.25;23.30;;;22.30;37.40;;;;;;5072510;28;20456;-82
2022/03/17 08:38:42;;;;;;;31.70;21.55;;;22.70;37.20;;;;;;5073639;28;20020;-82
2022/03/17 08:41:07;;;;;;;28.60;22.20;;;23.30;36.90;;;;;;5073883;28;20027;-83
2022/03/17 08:43:33;;;;;;;32.67;23.20;;;23.90;36.60;;;;;;5072729;28;20025;-83
2022/03/17 08:51:28;;;;;;;31.77;23.75;;;24.50;36.00;;;;;;5073740;28;20553;-82
2022/03/17 08:53:56;;;;;;;32.95;24.00;;;25.20;36.30;;;;;;5073930;28;20051;-83
2022/03/17 08:56:22;;;;;;;31.58;22.55;;;26.50;35.70;;;;;;5072351;28;20128;-82
2022/03/17 08:58:47;;;;;;;31.10;23.17;;;26.50;34.60;;;;;;5072565;28;20534;-85
2022/03/17 09:01:13;;;;;;;32.10;23.38;;;26.60;34.80;;;;;;5073511;28;20029;-84
2022/03/17 09:03:39;;;;;;;35.47;23.98;;;25.10;34.40;;;;;;5073628;28;20074;-82
2022/03/17 09:06:04;;;;;;;33.13;23.42;;;24.60;36.10;;;;;;5073282;28;20032;-82
2022/03/17 09:08:30;;;;;;;30.58;22.77;;;25.00;35.50;;;;;;5073423;28;20032;-81
2022/03/17 09:10:56;;;;;;;30.52;22.58;;;25.20;35.50;;;;;;5073384;28;20020;-82
2022/03/17 09:13:25;;;;;;;32.28;23.27;;;25.60;34.60;;;;;;5073145;28;20094;-84
2022/03/17 09:15:52;;;;;;;30.48;22.30;;;24.80;35.30;;;;;;5072217;28;20086;-81
2022/03/17 09:18:19;;;;;;;30.67;23.73;;;25.10;35.40;;;;;;5073530;28;20103;-83
2022/03/17 09:20:44;;;;;;;31.05;23.63;;;26.10;36.10;;;;;;5072006;28;20032;-82
2022/03/17 09:23:10;;;;;;;34.83;23.58;;;26.70;34.90;;;;;;5072053;28;20024;-82
2022/03/17 09:25:36;;;;;;;30.88;21.90;;;26.70;34.10;;;;;;5072099;28;20082;-79
2022/03/17 09:28:02;;;;;;;30.73;22.52;;;26.40;34.80;;;;;;5071982;28;20084;-81
2022/03/17 09:30:28;;;;;;;30.35;22.35;;;26.90;35.00;;;;;;5072223;28;20098;-83
2022/03/17 09:32:54;;;;;;;29.55;22.60;;;26.50;34.20;;;;;;5072036;28;20032;-84
2022/03/17 09:35:21;;;;;;;34.35;23.63;;;26.00;34.90;;;;;;5072108;28;20592;-83
2022/03/17 09:37:50;;;;;;;28.50;21.63;;;25.60;34.60;;;;;;4079706;27;10021484;-81
2022/03/17 09:40:16;;;;;;;31.05;23.35;;;26.10;35.30;;;;;;5068934;28;20326;-80
2022/03/17 09:42:41;;;;;;;32.65;23.92;;;26.10;34.60;;;;;;5072482;28;20443;-82
2022/03/17 09:45:09;;;;;;;32.63;24.00;;;24.20;35.60;;;;;;5072922;28;20478;-81
2022/03/17 09:47:37;;;;;;;31.25;24.67;;;22.10;37.30;;;;;;5072046;28;20027;-81
2022/03/17 09:50:06;;;;;;;30.13;23.67;;;21.10;38.40;;;;;;5072013;28;20029;-81
2022/03/17 09:52:32;;;;;;;30.88;24.00;;;21.70;38.30;;;;;;5072819;28;20064;-81
2022/03/17 09:54:58;;;;;;;32.35;23.77;;;22.00;37.60;;;;;;5072041;28;20082;-81
2022/03/17 09:57:24;;;;;;;29.92;22.63;;;22.90;37.90;;;;;;5072857;28;20086;-82
2022/03/17 09:59:58;;;;;;;30.77;22.52;;;24.20;36.10;;;;;;5075282;28;20036;-82
2022/03/17 10:02:24;;;;;;;27.52;21.98;;;25.50;35.60;;;;;;5076914;28;20021;-84
2022/03/17 10:04:51;;;;;;;26.00;20.88;;;25.30;34.90;;;;;;5076591;28;20060;-81
2022/03/17 10:07:18;;;;;;;27.35;21.50;;;23.90;36.00;;;;;;5075415;28;20035;-82
2022/03/17 10:09:45;;;;;;;30.80;22.30;;;23.00;36.40;;;;;;5076666;28;20020;-84
2022/03/17 10:12:12;;;;;;;29.98;22.63;;;22.80;36.60;;;;;;5074798;28;20143;-83
2022/03/17 10:14:43;;;;;;;30.08;21.88;;;21.60;37.60;;;;;;5075231;28;20078;-84
2022/03/17 10:17:31;;;;;;;31.55;22.73;;;21.10;38.00;;;;;;5075387;28;20127;-84
2022/03/17 10:20:25;;;;;;;30.40;22.25;;;20.80;38.50;;;;;;5075337;28;20117;-85
2022/03/17 10:22:58;;;;;;;30.75;21.50;;;20.40;38.80;;;;;;5075984;28;20107;-84
2022/03/17 10:25:26;;;;;;;29.75;22.40;;;19.80;39.40;;;;;;5076418;28;20021;-83
2022/03/17 10:27:56;;;;;;;28.17;21.30;;;20.00;40.40;;;;;;5075072;28;20361;-81
2022/03/17 10:30:23;;;;;;;29.40;22.13;;;21.30;38.50;;;;;;5075139;28;20029;-83
2022/03/17 10:32:57;;;;;;;31.63;23.40;;;21.40;38.40;;;;;;5074900;28;20033;-83
2022/03/17 10:35:34;;;;;;;31.35;22.67;;;22.00;37.60;;;;;;5075900;28;20107;-83
2022/03/17 10:38:09;;;;;;;34.28;23.38;;;21.30;37.90;;;;;;5072215;28;20024;-83
2022/03/17 10:40:35;;;;;;;31.60;22.98;;;21.20;38.00;;;;;;5076248;28;20107;-85
2022/03/17 10:43:18;;;;;;;28.67;22.48;;;21.10;38.40;;;;;;5076059;28;20150;-83
2022/03/17 10:45:44;;;;;;;31.38;21.52;;;20.30;39.00;;;;;;5075878;28;20047;-85
2022/03/17 10:48:10;;;;;;;33.83;21.67;;;19.60;39.30;;;;;;5075709;28;20030;-83
2022/03/17 10:50:43;;;;;;;29.13;21.70;;;19.10;39.70;;;;;;5076293;28;20017;-82
2022/03/17 10:53:10;;;;;;;31.27;21.75;;;19.20;40.10;;;;;;5074869;28;20069;-78
2022/03/17 10:55:37;;;;;;;28.85;21.60;;;20.00;38.60;;;;;;5073990;28;20447;-83
2022/03/17 10:58:16;;;;;;;30.40;22.40;;;20.20;39.20;;;;;;5075990;28;20442;-83
2022/03/17 11:00:51;;;;;;;29.92;21.42;;;19.70;39.80;;;;;;5075305;28;20025;-76
2022/03/17 11:03:21;;;;;;;28.92;22.02;;;19.50;39.70;;;;;;5074248;28;20035;-84
2022/03/17 11:05:51;;;;;;;31.77;23.00;;;19.50;40.30;;;;;;5075547;28;20112;-82
2022/03/17 11:08:18;;;;;;;31.03;21.97;;;20.00;38.80;;;;;;5074333;28;20086;-83
2022/03/17 11:10:44;;;;;;;31.50;22.33;;;20.20;38.30;;;;;;5075701;28;20265;-83
2022/03/17 11:13:11;;;;;;;29.08;22.02;;;19.00;39.60;;;;;;5075303;28;20052;-83
2022/03/17 11:15:41;;;;;;;31.02;22.70;;;18.40;40.40;;;;;;5074320;28;20048;-84
2022/03/17 11:18:16;;;;;;;32.08;22.90;;;18.40;40.90;;;;;;5075678;28;20087;-83
2022/03/17 11:20:41;;;;;;;34.67;24.67;;;18.60;40.30;;;;;;5074010;28;20029;-84
2022/03/17 11:23:16;;;;;;;33.17;24.08;;;17.70;41.00;;;;;;5075364;28;20090;-81
2022/03/17 11:25:56;;;;;;;30.83;24.20;;;16.90;42.00;;;;;;5075312;28;20021;-81
2022/03/17 11:28:34;;;;;;;33.43;23.97;;;17.10;42.60;;;;;;5073739;28;20502;-82
2022/03/17 11:31:05;;;;;;;37.22;25.45;;;17.60;41.80;;;;;;5075041;28;20808;-81
2022/03/17 11:33:37;;;;;;;;;;;18.30;40.70;;;;;;5073579;28;20062;-82
2022/03/17 11:36:09;;;;;;;31.48;24.17;;;18.90;40.50;;;;;;5073896;28;19908;-84
2022/03/17 11:38:41;;;;;;;34.45;25.60;;;18.70;40.10;;;;;;5073561;28;20025;-84
2022/03/17 11:41:12;;;;;;;33.13;25.23;;;17.90;41.20;;;;;;5074914;28;20031;-83
2022/03/17 11:44:02;;;;;;;34.50;26.08;;;16.70;42.50;;;;;;5073898;28;20474;-84
2022/03/17 11:46:40;;;;;;;37.10;25.23;;;16.10;44.10;;;;;;5074613;28;20392;-83
2022/03/17 11:49:20;;;;;;;34.60;25.45;;;15.70;43.80;;;;;;5074577;28;20055;-85
2022/03/17 11:51:59;;;;;;;34.65;25.38;;;15.80;44.30;;;;;;5073348;28;20054;-83
2022/03/17 11:54:26;;;;;;;37.75;26.55;;;16.60;43.60;;;;;;5074022;28;20444;-81
2022/03/17 11:57:04;;;;;;;35.95;26.48;;;16.50;43.30;;;;;;5073393;28;20024;-83
2022/03/17 11:59:55;;;;;;;36.75;25.92;;;16.70;42.50;;;;;;5073373;28;20109;-81
2022/03/17 12:02:28;;;;;;;39.53;27.38;;;16.70;42.40;;;;;;5074586;28;20021;-82
2022/03/17 12:04:54;;;;;;;38.63;26.10;;;16.60;43.50;;;;;;5074144;28;20129;-84
2022/03/17 12:07:20;;;;;;;34.85;25.42;;;17.40;42.40;;;;;;5074466;28;20087;-83
2022/03/17 12:09:47;;;;;;;35.38;25.80;;;17.30;40.90;;;;;;5073233;28;20098;-81
2022/03/17 12:12:17;;;;;;;40.65;26.48;;;17.00;41.30;;;;;;5072998;28;20039;-81
2022/03/17 12:14:57;;;;;;;32.75;24.73;;;17.10;41.20;;;;;;5073020;28;20044;-83
2022/03/17 12:17:24;;;;;;;34.50;25.75;;;17.50;41.60;;;;;;5074182;28;20117;-80
2022/03/17 12:20:10;;;;;;;36.03;26.20;;;17.30;41.10;;;;;;5072823;28;20075;-82
2022/03/17 12:22:39;;;;;;;40.63;26.50;;;16.90;41.40;;;;;;5072272;28;20032;-81
2022/03/17 12:25:24;;;;;;;35.15;25.75;;;16.90;42.10;;;;;;5072873;28;20117;-83
2022/03/17 12:27:56;;;;;;;38.13;26.10;;;17.10;41.90;;;;;;5072841;28;20028;-80
2022/03/17 12:30:24;;;;;;;38.05;26.20;;;17.00;42.10;;;;;;5073839;28;20052;-85
2022/03/17 12:32:49;;;;;;;37.20;26.27;;;17.40;41.80;;;;;;5072711;28;20101;-82
2022/03/17 12:35:16;;;;;;;36.13;26.05;;;17.90;41.30;;;;;;5072706;28;20467;-82
2022/03/17 12:37:43;;;;;;;32.65;25.30;;;18.80;41.00;;;;;;5073602;28;20352;-82
2022/03/17 12:40:18;;;;;;;35.92;26.30;;;19.40;40.40;;;;;;5073838;28;20081;-82
2022/03/17 12:42:49;;;;;;;34.35;25.67;;;20.10;39.30;;;;;;5072641;28;20031;-82
2022/03/17 12:45:17;;;;;;;34.55;25.98;;;19.50;39.00;;;;;;5074004;28;20045;-83
2022/03/17 12:47:48;;;;;;;38.92;27.38;;;19.20;38.70;;;;;;5072513;28;20070;-82
2022/03/17 12:50:18;;;;;;;36.63;26.48;;;19.10;39.70;;;;;;5072471;28;20050;-82
2022/03/17 12:52:45;;;;;;;;;;;18.30;39.30;;;;;;5074177;28;20436;-83
2022/03/17 12:55:13;;;;;;;36.33;25.73;;;17.80;39.50;;;;;;5072629;28;20362;-83
2022/03/17 12:57:40;;;;;;;36.17;24.48;;;17.30;40.40;;;;;;5072332;28;20463;-82
2022/03/17 13:00:08;;;;;;;34.05;25.27;;;16.80;40.60;;;;;;5072565;28;20032;-84
2022/03/17 13:02:34;;;;;;;45.88;34.08;;;16.80;40.80;;;;;;5073672;28;20076;-84